Time;durP1;ratioP1;P1;durP2;ratioP2;P2;SDS_P1;SDS_P2;PMS_P1;PMS_P2;Temp;Humidity;BMP_temperature;BMP_pressure;BME280_temperature;BME280_humidity;BME280_pressure;Samples;Min_cycle;Max_cycle;Signal;HPM_P1;HPM_P2
2023/03/24 00:00:32;;;;;;;13.85;5.90;;;8.50;99.90;;;7.17;100.00;99992.53;4953486;28;20039;-80
2023/03/24 00:03:01;;;;;;;15.52;5.63;;;8.50;99.90;;;7.19;100.00;99985.47;4921162;28;20052;-79
2023/03/24 00:05:29;;;;;;;11.93;5.30;;;8.50;99.90;;;7.25;100.00;99983.47;4954832;28;20067;-80
2023/03/24 00:08:03;;;;;;;10.52;5.43;;;8.60;99.90;;;7.30;100.00;99978.88;4934659;28;20046;-79
2023/03/24 00:10:33;;;;;;;12.75;5.45;;;8.60;99.90;;;7.32;100.00;99971.81;4950569;28;20118;-80
2023/03/24 00:12:59;;;;;;;11.27;5.00;;;8.60;99.90;;;7.35;100.00;99972.53;4957694;28;20035;-80
2023/03/24 00:15:29;;;;;;;10.65;5.55;;;8.60;99.90;;;7.40;100.00;99972.31;4928851;28;20094;-80
2023/03/24 00:17:56;;;;;;;15.70;5.07;;;8.60;99.90;;;7.43;100.00;99969.56;4934697;28;20089;-79
2023/03/24 00:20:25;;;;;;;15.20;5.60;;;8.70;99.90;;;7.44;100.00;99958.16;4916352;28;20048;-80
2023/03/24 00:22:59;;;;;;;11.93;5.20;;;8.70;99.90;;;7.47;100.00;99962.41;4915109;28;20492;-80
2023/03/24 00:25:35;;;;;;;15.57;5.30;;;8.70;99.90;;;7.48;100.00;99959.72;4953216;28;20069;-79
2023/03/24 00:28:02;;;;;;;15.23;5.82;;;8.70;99.90;;;7.48;100.00;99958.88;4941550;28;20130;-80
2023/03/24 00:30:28;;;;;;;14.00;4.90;;;8.80;99.90;;;7.51;100.00;99946.47;4958787;28;20038;-80
2023/03/24 00:32:54;;;;;;;14.93;5.90;;;8.80;99.90;;;7.51;100.00;99943.00;4931594;28;20047;-80
2023/03/24 00:35:21;;;;;;;16.77;5.88;;;8.80;99.90;;;7.48;100.00;99937.94;4919072;28;20036;-80
2023/03/24 00:37:50;;;;;;;13.98;5.60;;;8.70;99.90;;;7.48;100.00;99940.53;4900686;28;20042;-80
2023/03/24 00:40:20;;;;;;;15.27;5.20;;;8.70;99.90;;;7.45;100.00;99931.06;4927296;28;20737;-81
2023/03/24 00:42:48;;;;;;;15.02;5.93;;;8.70;99.90;;;7.40;100.00;99925.16;4922670;28;20038;-80
2023/03/24 00:45:18;;;;;;;18.58;5.65;;;8.70;99.90;;;7.39;100.00;99921.72;4917493;28;20523;-80
2023/03/24 00:47:48;;;;;;;22.50;5.90;;;8.60;99.90;;;7.39;100.00;99918.25;4950960;28;20096;-80
2023/03/24 00:50:19;;;;;;;12.38;5.45;;;8.70;99.90;;;7.39;100.00;99911.22;4930681;28;21272;-80
2023/03/24 00:52:54;;;;;;;17.20;6.20;;;8.70;99.90;;;7.44;100.00;99907.56;4936195;28;20050;-80
2023/03/24 00:55:22;;;;;;;11.35;5.85;;;8.70;99.90;;;7.50;100.00;99904.66;4946727;28;20050;-80
2023/03/24 00:57:53;;;;;;;14.32;6.10;;;8.80;99.90;;;7.58;100.00;99906.00;4950120;28;20046;-80
2023/03/24 01:00:25;;;;;;;19.73;5.53;;;8.90;99.90;;;7.67;100.00;99903.84;4959591;28;20096;-80
2023/03/24 01:02:56;;;;;;;15.07;5.53;;;9.00;99.90;;;7.74;100.00;99890.38;4952750;28;20042;-80
2023/03/24 01:05:29;;;;;;;17.30;6.05;;;9.00;99.90;;;7.79;100.00;99887.53;4901759;28;20113;-80
2023/03/24 01:07:57;;;;;;;14.95;5.85;;;9.10;99.90;;;7.86;100.00;99873.22;4919058;28;20442;-80
2023/03/24 01:10:28;;;;;;;18.88;6.22;;;9.20;99.90;;;7.91;100.00;99878.22;4907750;28;20030;-80
2023/03/24 01:12:57;;;;;;;17.45;5.93;;;9.20;99.90;;;7.97;100.00;99875.31;4960749;28;20422;-80
2023/03/24 01:15:31;;;;;;;17.67;6.22;;;9.30;99.90;;;7.94;100.00;99871.03;4953222;28;20031;-81
2023/03/24 01:18:01;;;;;;;20.63;9.48;;;9.20;99.90;;;7.92;100.00;99872.06;4937038;28;20050;-80
2023/03/24 01:20:35;;;;;;;30.58;13.68;;;9.20;99.90;;;7.91;100.00;99865.97;4897919;28;20126;-80
2023/03/24 01:23:06;;;;;;;25.23;12.98;;;9.20;99.90;;;7.87;100.00;99868.81;4950303;28;20125;-80
2023/03/24 01:25:46;;;;;;;15.80;7.55;;;9.10;99.90;;;7.73;100.00;99861.63;4907828;28;21275;-80
2023/03/24 01:28:22;;;;;;;21.25;6.57;;;9.10;99.90;;;7.71;100.00;99863.44;4922379;28;20035;-80
2023/03/24 01:30:49;;;;;;;26.92;17.05;;;9.00;99.90;;;7.73;100.00;99859.88;4881039;28;20061;-80
2023/03/24 01:33:15;;;;;;;28.10;16.13;;;9.00;99.90;;;7.75;100.00;99859.75;4933496;28;20034;-79
2023/03/24 01:35:46;;;;;;;19.23;9.18;;;9.00;99.90;;;7.75;100.00;99868.50;4936069;28;20034;-80
2023/03/24 01:38:14;;;;;;;21.20;7.07;;;9.00;99.90;;;7.78;100.00;99872.75;4952892;28;20122;-80
2023/03/24 01:40:43;;;;;;;14.35;6.40;;;9.00;99.90;;;7.81;100.00;99862.94;4948741;28;20535;-80
2023/03/24 01:43:22;;;;;;;15.32;6.18;;;9.10;99.90;;;7.87;100.00;99850.47;4939315;28;20034;-80
2023/03/24 01:46:15;;;;;;;17.48;6.80;;;9.10;99.90;;;7.91;100.00;99838.91;4968995;28;20047;-80
2023/03/24 01:49:05;;;;;;;15.70;6.75;;;9.20;99.90;;;7.92;100.00;99841.44;4941219;28;20041;-80
2023/03/24 01:51:46;;;;;;;20.02;6.82;;;9.20;99.90;;;7.97;100.00;99844.69;4929726;28;20138;-80
2023/03/24 01:54:42;;;;;;;12.85;6.45;;;9.20;99.90;;;7.99;100.00;99832.38;4921645;28;20041;-80
2023/03/24 01:57:40;;;;;;;18.20;6.80;;;9.20;99.90;;;7.96;100.00;99832.50;4924415;28;20034;-80
2023/03/24 02:00:11;;;;;;;;;;;9.30;99.90;;;7.90;100.00;99824.09;4947622;28;20045;-80
2023/03/24 02:02:43;;;;;;;16.02;5.88;;;9.20;99.90;;;7.88;100.00;99818.91;4951146;28;20360;-80
2023/03/24 02:05:13;;;;;;;18.33;6.35;;;9.30;99.90;;;7.91;100.00;99810.91;4945242;28;20048;-80
2023/03/24 02:07:52;;;;;;;20.80;6.40;;;9.30;99.90;;;7.95;100.00;99803.75;4931896;28;20051;-80
2023/03/24 02:10:20;;;;;;;20.42;6.20;;;9.30;99.90;;;7.95;100.00;99794.13;4952886;28;20133;-80
2023/03/24 02:12:49;;;;;;;23.58;6.13;;;9.30;99.90;;;7.96;100.00;99793.19;4924780;28;20118;-79
2023/03/24 02:15:18;;;;;;;16.45;5.82;;;9.30;99.90;;;8.00;100.00;99793.88;4935541;28;20044;-80
2023/03/24 02:17:56;;;;;;;26.17;6.50;;;9.30;99.90;;;7.98;100.00;99783.47;4944223;28;20051;-80
2023/03/24 02:21:01;;;;;;;33.28;5.97;;;9.30;99.90;;;8.01;100.00;99779.84;4952508;28;20027;-80
2023/03/24 02:24:07;;;;;;;23.90;6.50;;;9.30;99.90;;;7.95;100.00;99751.34;4959556;28;20098;-80
2023/03/24 02:26:48;;;;;;;12.70;6.25;;;9.30;99.90;;;7.99;100.00;99763.34;4927771;28;20066;-80
2023/03/24 02:30:02;;;;;;;21.67;6.00;;;9.30;99.90;;;7.96;100.00;99758.25;4946865;28;20034;-79
2023/03/24 02:33:06;;;;;;;16.92;5.78;;;9.30;99.90;;;7.98;100.00;99746.75;4931530;28;20037;-80
2023/03/24 02:36:02;;;;;;;15.07;5.28;;;9.40;99.90;;;7.99;100.00;99744.97;4916729;28;20457;-79
2023/03/24 02:39:08;;;;;;;18.15;5.53;;;9.40;99.90;;;8.05;100.00;99738.59;4938781;28;20043;-80
2023/03/24 02:42:10;;;;;;;23.08;6.22;;;9.40;99.90;;;8.12;100.00;99738.19;4917870;28;20046;-79
2023/03/24 02:45:23;;;;;;;14.57;5.57;;;9.50;99.90;;;8.20;100.00;99728.13;4938001;28;20038;-80
2023/03/24 02:48:01;;;;;;;17.83;5.60;;;9.50;99.90;;;8.25;100.00;99725.28;4876371;28;20523;-80
2023/03/24 02:50:50;;;;;;;17.30;5.80;;;9.60;99.90;;;8.35;100.00;99723.84;4934975;28;20026;-80
2023/03/24 02:53:55;;;;;;;20.23;5.55;;;9.70;99.90;;;8.41;100.00;99715.69;4927510;28;20031;-80
2023/03/24 02:56:28;;;;;;;15.68;6.15;;;9.70;99.90;;;8.48;100.00;99715.38;4985611;23;20050;-80
2023/03/24 02:59:39;;;;;;;19.00;6.18;;;9.80;99.90;;;8.52;100.00;99709.88;4992159;28;20053;-80
2023/03/24 03:02:45;;;;;;;11.65;5.57;;;9.80;99.90;;;8.57;100.00;99702.63;4985533;28;20511;-79
2023/03/24 03:05:23;;;;;;;16.80;6.53;;;;;;;8.62;100.00;99697.09;4970891;28;20042;-80
2023/03/24 03:07:51;;;;;;;16.40;6.05;;;9.90;99.90;;;8.63;100.00;99696.16;4956706;28;20112;-80
2023/03/24 03:10:31;;;;;;;27.05;7.03;;;9.90;99.90;;;8.67;100.00;99688.97;4926191;28;20379;-80
2023/03/24 03:13:06;;;;;;;18.02;6.18;;;10.00;99.90;;;8.64;100.00;99684.75;4977137;28;20029;-80
2023/03/24 03:15:38;;;;;;;23.13;6.38;;;10.00;99.90;;;8.62;100.00;99673.50;5014704;22;20102;-80
2023/03/24 03:18:48;;;;;;;25.63;6.28;;;10.00;99.90;;;8.58;100.00;99678.06;4984440;28;20060;-80
2023/03/24 03:21:26;;;;;;;25.83;6.00;;;9.90;99.90;;;8.57;100.00;99667.63;4959948;28;20410;-80
2023/03/24 03:24:07;;;;;;;21.75;6.03;;;9.90;99.90;;;8.53;100.00;99655.59;4985164;28;20031;-79
2023/03/24 03:26:33;;;;;;;17.65;5.93;;;9.90;99.90;;;8.54;100.00;99652.91;4941993;28;20037;-79
2023/03/24 03:29:10;;;;;;;19.10;6.68;;;9.90;99.90;;;8.54;100.00;99646.81;4943287;28;20064;-80
2023/03/24 03:32:06;;;;;;;24.83;7.00;;;9.90;99.90;;;8.55;100.00;99641.50;4926966;28;20108;-80
2023/03/24 03:34:51;;;;;;;19.95;7.10;;;9.90;99.90;;;8.55;100.00;99638.88;4933798;28;20113;-80
2023/03/24 03:37:53;;;;;;;21.40;6.97;;;9.90;99.90;;;8.54;100.00;99636.31;4926366;28;20034;-80
2023/03/24 03:40:55;;;;;;;22.50;7.35;;;9.90;99.90;;;8.56;100.00;99626.59;4950096;28;20461;-80
2023/03/24 03:43:22;;;;;;;22.05;7.18;;;10.00;99.90;;;8.59;100.00;99621.16;4992630;28;20103;-80
2023/03/24 03:45:55;;;;;;;22.88;7.20;;;10.00;99.90;;;8.60;100.00;99620.25;4960721;28;20042;-80
2023/03/24 03:48:25;;;;;;;14.80;7.30;;;10.00;99.90;;;8.65;100.00;99615.56;4953779;28;20059;-80
2023/03/24 03:51:02;;;;;;;16.38;7.32;;;10.00;99.90;;;8.69;100.00;99613.63;4944583;28;20190;-81
2023/03/24 03:53:58;;;;;;;17.90;7.90;;;10.00;99.90;;;8.71;100.00;99611.78;4922123;28;20048;-81
2023/03/24 03:56:28;;;;;;;19.90;7.45;;;10.00;99.90;;;8.74;100.00;99608.97;5020104;23;20061;-81
2023/03/24 03:59:05;;;;;;;23.95;8.20;;;10.00;99.90;;;8.78;100.00;99605.22;4984515;28;20075;-81
2023/03/24 04:01:43;;;;;;;14.38;8.25;;;10.10;99.90;;;8.85;100.00;99613.59;4964323;28;20043;-81
2023/03/24 04:04:52;;;;;;;19.02;8.23;;;10.10;99.90;;;8.88;100.00;99603.78;4934127;28;20125;-81
2023/03/24 04:08:41;;;;;;;18.38;9.10;;;10.10;99.90;;;8.86;100.00;99604.81;4921915;28;20038;-81
2023/03/24 04:11:33;;;;;;;22.90;8.35;;;10.20;99.90;;;8.87;100.00;99599.44;4945195;28;20049;-81
2023/03/24 04:17:24;;;;;;;21.13;10.32;;;10.20;99.90;;;8.91;100.00;99603.59;4949928;23;20527;-81
2023/03/24 04:20:55;;;;;;;20.15;9.25;;;10.20;99.90;;;8.93;100.00;99600.88;4791189;29;20048;-81
2023/03/24 04:24:11;;;;;;;18.75;9.45;;;10.30;99.90;;;8.96;100.00;99605.94;4710454;29;20047;-82
2023/03/24 04:27:25;;;;;;;24.58;10.40;;;10.20;99.90;;;8.92;100.00;99589.53;4797793;29;20057;-82
2023/03/24 04:30:44;;;;;;;24.85;10.18;;;10.20;99.90;;;8.91;100.00;99584.38;4845163;28;20080;-81
2023/03/24 04:33:27;;;;;;;;;;;10.30;99.90;;;8.93;100.00;99578.09;4931152;28;20050;-81
2023/03/24 04:36:41;;;;;;;30.40;9.93;;;10.30;99.90;;;8.98;100.00;99572.56;4943669;28;19948;-82
2023/03/24 04:39:37;;;;;;;18.23;9.70;;;;;;;9.00;100.00;99570.69;4928266;28;20433;-81
2023/03/24 04:45:15;;;;;;;14.77;9.38;;;;;;;9.07;100.00;99564.19;4884607;28;20149;-81
2023/03/24 04:48:25;;;;;;;21.75;10.20;;;10.70;99.90;;;9.06;100.00;99551.97;4916504;28;20070;-82
2023/03/24 04:51:04;;;;;;;22.38;9.95;;;10.30;99.90;;;9.05;100.00;99550.28;4902939;28;20106;-82
2023/03/24 04:53:42;;;;;;;20.35;9.20;;;;;;;9.04;100.00;99541.53;4912947;28;20044;-81
2023/03/24 04:56:46;;;;;;;19.70;9.43;;;10.30;99.90;;;9.02;100.00;99535.53;4947451;28;20057;-81
2023/03/24 04:59:15;;;;;;;18.05;9.50;;;10.30;99.90;;;9.02;100.00;99524.19;4964464;28;20084;-82
2023/03/24 05:01:48;;;;;;;21.10;9.77;;;10.40;99.90;;;9.03;100.00;99510.16;4945665;28;20443;-81
2023/03/24 05:04:24;;;;;;;18.67;9.20;;;10.40;99.90;;;9.07;100.00;99500.28;4963386;28;20034;-81
2023/03/24 05:06:58;;;;;;;14.07;8.60;;;10.40;99.90;;;9.10;100.00;99494.88;4939402;28;20101;-81
2023/03/24 05:09:25;;;;;;;17.88;8.13;;;10.40;99.90;;;9.10;100.00;99487.81;4908021;28;20715;-80
2023/03/24 05:11:51;;;;;;;14.18;8.25;;;10.40;99.90;;;9.12;100.00;99487.75;4973254;28;20030;-81
2023/03/24 05:14:18;;;;;;;17.92;8.57;;;10.40;99.90;;;9.17;100.00;99483.03;4993803;22;20125;-81
2023/03/24 05:16:44;;;;;;;18.17;8.90;;;10.40;99.90;;;9.18;100.00;99477.72;4973490;28;20029;-81
2023/03/24 05:19:15;;;;;;;18.63;8.90;;;10.50;99.90;;;9.21;100.00;99477.50;4990168;28;20029;-81
2023/03/24 05:21:42;;;;;;;15.20;8.48;;;10.50;99.90;;;9.22;100.00;99476.59;4994830;28;20025;-82
2023/03/24 05:24:11;;;;;;;21.33;8.48;;;10.50;99.90;;;9.23;100.00;99473.00;4954093;28;20055;-81
2023/03/24 05:26:41;;;;;;;16.05;8.60;;;10.50;99.90;;;9.26;100.00;99476.38;4984679;28;20511;-81
2023/03/24 05:29:10;;;;;;;17.50;8.45;;;10.50;99.90;;;9.27;100.00;99472.84;4931176;28;20141;-81
2023/03/24 05:31:36;;;;;;;20.05;8.30;;;10.60;99.90;;;9.34;100.00;99463.63;4960954;28;20037;-81
2023/03/24 05:34:02;;;;;;;18.05;8.73;;;10.60;99.90;;;9.33;100.00;99469.81;4976027;28;20096;-81
2023/03/24 05:36:28;;;;;;;15.10;8.38;;;10.60;99.90;;;9.34;100.00;99468.91;4938962;23;20118;-81
2023/03/24 05:39:02;;;;;;;21.42;8.40;;;10.60;99.90;;;9.35;100.00;99454.81;4924746;28;20630;-79
2023/03/24 05:41:29;;;;;;;14.18;7.72;;;10.60;99.90;;;9.39;100.00;99448.44;4932860;28;20033;-80
2023/03/24 05:43:54;;;;;;;15.40;7.43;;;10.70;99.90;;;9.40;100.00;99443.09;4946968;28;20029;-80
2023/03/24 05:46:20;;;;;;;18.27;6.80;;;10.70;99.90;;;9.42;100.00;99446.47;4974454;28;20150;-81
2023/03/24 05:48:51;;;;;;;12.75;5.85;;;10.60;99.90;;;9.45;100.00;99443.63;4947994;28;20034;-80
2023/03/24 05:51:18;;;;;;;12.50;6.25;;;10.70;99.90;;;9.51;100.00;99433.69;4953294;28;20038;-81
2023/03/24 05:53:45;;;;;;;11.95;5.95;;;10.70;99.90;;;9.57;100.00;99428.91;4955062;28;20036;-81
2023/03/24 05:56:10;;;;;;;10.85;6.07;;;10.80;99.90;;;9.62;100.00;99425.97;4946395;28;20029;-81
2023/03/24 05:58:45;;;;;;;16.35;6.47;;;10.90;99.90;;;9.71;100.00;99419.28;4980400;28;20464;-80
2023/03/24 06:01:11;;;;;;;10.85;5.95;;;10.90;99.90;;;9.77;100.00;99414.47;4926645;28;20095;-81
2023/03/24 06:03:39;;;;;;;10.15;5.45;;;11.00;99.90;;;9.85;100.00;99403.47;4947427;28;20046;-81
2023/03/24 06:06:15;;;;;;;17.25;6.53;;;11.00;99.90;;;9.94;100.00;99400.25;4935736;28;20070;-81
2023/03/24 06:08:43;;;;;;;13.10;6.38;;;11.10;99.90;;;9.94;100.00;99405.50;4924756;28;20065;-81
2023/03/24 06:11:14;;;;;;;10.02;5.70;;;;;;;9.98;100.00;99396.47;4952186;28;20408;-81
2023/03/24 06:13:40;;;;;;;13.07;5.57;;;11.20;99.90;;;10.05;100.00;99395.13;4944532;28;20211;-81
2023/03/24 06:16:27;;;;;;;11.10;5.88;;;11.20;99.90;;;10.11;100.00;99391.25;4905198;28;21209;-81
2023/03/24 06:18:53;;;;;;;10.80;5.72;;;11.30;99.90;;;10.17;100.00;99379.47;4964783;28;20099;-81
2023/03/24 06:21:43;;;;;;;9.70;5.95;;;11.40;99.90;;;10.21;100.00;99388.84;4925492;28;20033;-81
2023/03/24 06:24:13;;;;;;;11.35;5.68;;;11.40;99.90;;;10.21;100.00;99392.31;4899844;28;20042;-80
2023/03/24 06:26:48;;;;;;;9.52;5.90;;;11.40;99.90;;;10.20;100.00;99385.38;4893348;28;20242;-81
2023/03/24 06:29:16;;;;;;;11.10;6.15;;;11.40;99.90;;;10.23;100.00;99379.06;4925926;28;20042;-81
2023/03/24 06:31:48;;;;;;;11.00;5.82;;;11.40;99.90;;;10.28;100.00;99377.00;4929846;28;20250;-81
2023/03/24 06:34:14;;;;;;;9.68;6.10;;;11.40;99.90;;;10.33;100.00;99364.38;4963583;28;20023;-80
2023/03/24 06:36:41;;;;;;;9.18;5.75;;;11.50;99.90;;;10.33;100.00;99363.56;4925788;28;20201;-81
2023/03/24 06:39:09;;;;;;;11.25;5.82;;;11.50;99.90;;;10.40;100.00;99363.03;4969381;28;20064;-80
2023/03/24 06:41:40;;;;;;;12.95;5.65;;;11.50;99.90;;;10.42;100.00;99362.94;4950472;28;20527;-81
2023/03/24 06:44:05;;;;;;;9.60;5.95;;;11.60;99.90;;;10.42;100.00;99357.66;4952466;28;20034;-80
2023/03/24 06:46:31;;;;;;;11.23;5.68;;;11.60;99.90;;;10.52;100.00;99357.88;4979007;28;20445;-81
2023/03/24 06:48:57;;;;;;;9.63;5.70;;;11.70;99.90;;;10.55;100.00;99357.69;4959030;28;20086;-80
2023/03/24 06:51:23;;;;;;;7.93;5.25;;;11.70;99.90;;;10.56;100.00;99354.09;5001932;28;20038;-80
2023/03/24 06:53:51;;;;;;;11.35;5.72;;;11.70;99.90;;;10.58;100.00;99355.69;4935864;28;20422;-81
2023/03/24 06:56:20;;;;;;;10.25;5.10;;;11.80;99.90;;;10.56;100.00;99348.81;4923696;28;20042;-80
2023/03/24 06:58:46;;;;;;;8.98;5.15;;;11.80;99.90;;;10.57;100.00;99340.81;4907167;28;20139;-80
2023/03/24 07:01:13;;;;;;;10.32;5.40;;;11.80;99.90;;;10.58;100.00;99341.66;4931188;28;20029;-81
2023/03/24 07:03:41;;;;;;;13.55;5.65;;;11.70;99.90;;;10.55;100.00;99347.16;4943893;28;20100;-82
2023/03/24 07:06:10;;;;;;;7.10;4.85;;;11.80;99.90;;;10.54;100.00;99345.44;4952974;28;20053;-80
2023/03/24 07:08:36;;;;;;;11.10;5.38;;;11.80;99.90;;;10.57;100.00;99340.81;4951909;28;20722;-81
2023/03/24 07:11:03;;;;;;;9.85;5.55;;;11.70;99.90;;;10.59;100.00;99346.00;4953930;28;20095;-80
2023/03/24 07:13:29;;;;;;;9.07;5.45;;;11.80;99.90;;;10.64;100.00;99325.44;4934842;28;20035;-80
2023/03/24 07:15:54;;;;;;;9.80;4.95;;;11.80;99.90;;;10.71;100.00;99328.50;4903522;28;20034;-80
2023/03/24 07:18:20;;;;;;;8.32;5.30;;;11.90;99.90;;;10.78;100.00;99321.88;4937260;28;20076;-80
2023/03/24 07:20:52;;;;;;;8.32;4.93;;;12.00;99.90;;;10.81;100.00;99322.47;4953151;28;20681;-81
2023/03/24 07:23:17;;;;;;;10.18;4.90;;;12.00;99.90;;;10.90;100.00;99330.69;4961409;28;20038;-80
2023/03/24 07:25:44;;;;;;;9.98;4.70;;;12.00;99.90;;;10.87;100.00;99327.31;4929957;28;20104;-81
2023/03/24 07:28:10;;;;;;;10.82;5.07;;;12.10;99.90;;;10.88;100.00;99321.13;4935743;28;20101;-80
2023/03/24 07:30:36;;;;;;;6.18;4.70;;;12.10;99.90;;;10.88;100.00;99328.16;4959747;28;20450;-80
2023/03/24 07:33:06;;;;;;;10.43;4.50;;;12.10;99.90;;;10.84;100.00;99310.88;4944078;28;20113;-80
2023/03/24 07:35:32;;;;;;;7.35;4.20;;;12.10;99.90;;;10.83;100.00;99314.50;4896690;28;20038;-80
2023/03/24 07:38:00;;;;;;;9.07;4.70;;;12.10;99.90;;;10.89;100.00;99308.78;4926280;28;20235;-80
2023/03/24 07:40:26;;;;;;;10.27;4.55;;;12.10;99.90;;;10.96;100.00;99306.56;4949619;28;20047;-80
2023/03/24 07:42:52;;;;;;;13.27;4.30;;;12.10;99.90;;;11.03;100.00;99300.75;4929803;28;20041;-80
2023/03/24 07:45:27;;;;;;;8.40;4.05;;;12.20;99.90;;;11.00;100.00;99300.13;4949449;28;20054;-80
2023/03/24 07:47:55;;;;;;;7.57;4.30;;;12.20;99.90;;;11.02;100.00;99299.06;4942890;28;20042;-80
2023/03/24 07:50:31;;;;;;;7.22;4.65;;;12.20;99.90;;;11.04;100.00;99297.16;4919992;28;20671;-80
2023/03/24 07:52:57;;;;;;;11.82;5.18;;;12.20;99.90;;;11.02;100.00;99292.97;4965126;28;20050;-79
2023/03/24 07:55:23;;;;;;;6.00;4.25;;;12.30;99.90;;;11.05;100.00;99298.84;4994032;28;20526;-80
2023/03/24 07:57:51;;;;;;;8.30;4.53;;;12.30;99.90;;;11.17;100.00;99283.97;4927822;28;20042;-80
2023/03/24 08:00:23;;;;;;;8.35;4.82;;;12.40;99.90;;;11.22;100.00;99300.28;4956035;28;20033;-80
2023/03/24 08:02:52;;;;;;;7.95;4.30;;;12.40;99.90;;;11.29;100.00;99283.09;4923573;28;20038;-81
2023/03/24 08:05:21;;;;;;;7.32;3.63;;;12.50;99.90;;;11.53;100.00;99278.75;4944403;28;20061;-80
2023/03/24 08:07:54;;;;;;;6.00;3.50;;;12.70;99.90;;;11.74;100.00;99284.25;4947170;28;20639;-80
2023/03/24 08:10:28;;;;;;;6.68;3.92;;;12.90;99.90;;;12.10;100.00;99297.34;4920089;28;20045;-81
2023/03/24 08:12:56;;;;;;;6.78;3.30;;;13.10;99.90;;;12.40;100.00;99298.59;4975266;28;20333;-80
2023/03/24 08:15:22;;;;;;;7.15;4.00;;;13.40;99.90;;;12.80;100.00;99308.69;4959423;28;20030;-81
2023/03/24 08:17:58;;;;;;;6.32;3.00;;;13.70;99.90;;;12.98;100.00;99298.50;4960084;28;20622;-80
2023/03/24 08:20:25;;;;;;;5.25;3.30;;;13.90;99.90;;;13.09;99.57;99300.28;4940975;28;20030;-80
2023/03/24 08:22:53;;;;;;;5.85;3.50;;;14.00;99.90;;;12.93;99.15;99293.56;4905916;28;20039;-82
2023/03/24 08:25:27;;;;;;;6.70;3.55;;;14.00;99.90;;;12.81;98.88;99301.63;4942698;28;20031;-82
2023/03/24 08:27:54;;;;;;;8.40;3.63;;;13.90;99.90;;;12.65;99.59;99296.69;4971512;28;20150;-80
2023/03/24 08:30:27;;;;;;;4.63;3.47;;;13.80;99.90;;;12.59;99.98;99297.16;4916984;28;20041;-80
2023/03/24 08:32:57;;;;;;;5.55;3.25;;;13.80;99.90;;;12.43;100.00;99281.69;4932421;28;20116;-82
2023/03/24 08:35:33;;;;;;;5.38;3.67;;;13.70;99.90;;;12.36;100.00;99283.13;4936128;28;20088;-84
2023/03/24 08:38:31;;;;;;;;;;;;;;;;;;;;;
2023/03/24 08:41:29;;;;;;;11.02;4.32;;;13.50;99.90;;;12.12;100.00;99294.59;4904320;28;20057;-83
2023/03/24 08:43:56;;;;;;;;;;;13.40;99.90;;;11.90;100.00;99282.19;4905757;28;20030;-81
2023/03/24 08:46:34;;;;;;;6.65;4.13;;;13.30;99.90;;;11.87;100.00;99275.28;4873629;28;21955;-81
2023/03/24 08:49:22;;;;;;;7.57;4.03;;;13.20;99.90;;;11.87;100.00;99285.84;4854469;29;20051;-82
2023/03/24 08:51:54;;;;;;;9.63;4.32;;;13.20;99.90;;;12.04;100.00;99286.41;4905906;28;20486;-82
2023/03/24 08:54:35;;;;;;;9.10;4.50;;;13.30;99.90;;;12.20;100.00;99280.78;4827481;28;20050;-82
2023/03/24 08:57:07;;;;;;;8.70;4.60;;;13.40;99.90;;;12.30;100.00;99285.25;4873520;23;20071;-82
2023/03/24 08:59:33;;;;;;;7.82;3.97;;;13.40;99.90;;;12.34;100.00;99288.50;4947172;28;20033;-80
2023/03/24 09:02:00;;;;;;;5.20;3.67;;;13.50;99.90;;;12.18;100.00;99291.50;4954697;28;20126;-82
2023/03/24 09:04:26;;;;;;;5.90;3.80;;;13.40;99.90;;;12.08;100.00;99290.50;4979393;28;20034;-80
2023/03/24 09:06:58;;;;;;;6.15;3.70;;;13.40;99.90;;;12.02;100.00;99299.69;5000471;28;20049;-82
2023/03/24 09:09:31;;;;;;;11.18;4.30;;;13.30;99.90;;;11.92;100.00;99293.44;4969244;28;20038;-83
2023/03/24 09:12:08;;;;;;;7.07;4.35;;;13.30;99.90;;;11.83;100.00;99280.91;4969886;28;20042;-79
2023/03/24 09:14:37;;;;;;;7.18;4.63;;;13.20;99.90;;;11.80;100.00;99287.25;4959083;28;20036;-79
2023/03/24 09:17:08;;;;;;;7.65;4.55;;;13.10;99.90;;;11.75;100.00;99283.28;4972963;28;20069;-84
2023/03/24 09:19:34;;;;;;;7.80;4.78;;;13.10;99.90;;;11.72;100.00;99286.16;4969634;28;20029;-82
2023/03/24 09:22:00;;;;;;;7.68;5.22;;;13.00;99.90;;;11.75;100.00;99292.03;4975423;28;20042;-82
2023/03/24 09:24:34;;;;;;;6.43;4.60;;;13.00;99.90;;;11.74;100.00;99278.97;4985674;28;20037;-80
2023/03/24 09:27:03;;;;;;;7.78;4.95;;;13.10;99.90;;;11.74;100.00;99289.50;4977688;28;20062;-81
2023/03/24 09:29:30;;;;;;;9.10;4.90;;;13.00;99.90;;;11.72;100.00;99286.16;4967244;28;20045;-81
2023/03/24 09:32:05;;;;;;;8.75;4.68;;;13.00;99.90;;;11.68;100.00;99291.66;4971878;28;20042;-81
2023/03/24 09:34:32;;;;;;;9.27;4.95;;;13.00;99.90;;;11.69;100.00;99298.59;4995506;28;20044;-81
2023/03/24 09:37:00;;;;;;;8.40;5.15;;;13.10;99.90;;;11.80;100.00;99305.72;5013777;28;20649;-82
2023/03/24 09:39:33;;;;;;;12.75;5.93;;;13.10;99.90;;;11.94;100.00;99304.72;4987954;28;20068;-80
2023/03/24 09:41:59;;;;;;;6.93;4.68;;;13.20;99.90;;;12.00;100.00;99306.91;4975451;28;20026;-80
2023/03/24 09:44:42;;;;;;;8.95;5.25;;;13.20;99.90;;;12.16;100.00;99313.66;4974090;28;20030;-81
2023/03/24 09:47:37;;;;;;;9.52;5.60;;;13.30;99.90;;;12.24;100.00;99313.91;4962356;28;20041;-82
2023/03/24 09:50:47;;;;;;;18.30;11.23;;;13.40;99.90;;;12.46;100.00;99319.25;4953259;28;20110;-79
2023/03/24 09:53:40;;;;;;;12.82;8.63;;;13.50;99.90;;;12.48;100.00;99317.34;4949019;28;20034;-82
2023/03/24 09:56:43;;;;;;;7.47;5.43;;;13.60;99.90;;;12.54;100.00;99320.44;5001607;28;20121;-81
2023/03/24 09:59:47;;;;;;;7.60;4.82;;;13.70;99.90;;;12.69;100.00;99316.63;4956163;28;20045;-82
2023/03/24 10:02:26;;;;;;;6.70;5.03;;;13.80;99.90;;;12.80;100.00;99326.34;4887428;28;20055;-82
2023/03/24 10:04:58;;;;;;;10.13;5.20;;;13.90;99.90;;;12.92;100.00;99326.22;4924775;28;20064;-82
2023/03/24 10:07:38;;;;;;;7.68;3.90;;;;;;;13.01;100.00;99342.31;4954055;28;20090;-83
2023/03/24 10:10:42;;;;;;;4.90;3.83;;;;;;;13.03;100.00;99340.41;4930736;28;20041;-80
2023/03/24 10:13:55;;;;;;;7.32;4.20;;;14.20;99.90;;;13.17;100.00;99337.50;4967261;28;20050;-82
2023/03/24 10:21:06;;;;;;;6.85;4.07;;;14.20;99.90;;;13.17;100.00;99339.31;4951020;28;20191;-85
2023/03/24 10:24:58;;;;;;;8.43;3.30;;;14.30;99.90;;;13.23;100.00;99354.69;4935626;28;20097;-83
2023/03/24 10:28:01;;;;;;;6.80;3.70;;;;;;;13.24;100.00;99348.41;4807364;29;20044;-85
2023/03/24 10:30:51;;;;;;;3.92;3.40;;;;;;;13.33;99.88;99345.91;4869925;29;20485;-84
2023/03/24 10:33:27;;;;;;;;;;;;;;;;;;;;;
2023/03/24 10:36:12;;;;;;;;;;;14.50;99.90;;;13.43;97.23;99361.88;4917843;28;20336;-85
2023/03/24 10:38:38;;;;;;;3.47;2.67;;;;;;;13.69;96.98;99362.44;4933871;28;19913;-85
2023/03/24 10:41:32;;;;;;;3.83;2.35;;;;;;;13.91;95.03;99355.41;4956950;28;20083;-85
2023/03/24 10:47:28;;;;;;;3.83;2.30;;;;;;;14.20;91.39;99363.56;4879766;28;20034;-86
2023/03/24 10:50:08;;;;;;;5.45;2.38;;;;;;;14.83;89.56;99355.59;4968189;28;20053;-87
2023/03/24 10:52:58;;;;;;;3.92;2.53;;;;;;;15.24;87.86;99366.25;4981062;28;20038;-85
2023/03/24 10:56:15;;;;;;;2.40;1.90;;;;;;;15.29;85.51;99375.47;4967225;28;20045;-84
2023/03/24 10:58:56;;;;;;;4.22;2.20;;;;;;;15.34;82.95;99362.66;4977483;28;20041;-85
2023/03/24 11:01:51;;;;;;;5.00;1.80;;;16.30;99.90;;;15.64;81.03;99368.03;4993894;28;20781;-86
2023/03/24 11:05:29;;;;;;;;;;;;;;;;;;;;;
2023/03/24 11:08:16;;;;;;;5.72;2.00;;;16.70;99.90;;;16.32;81.46;99386.66;4926755;28;20034;-84
2023/03/24 11:11:36;;;;;;;5.28;1.85;;;17.20;99.90;;;16.76;80.02;99387.00;4923954;28;20046;-87
2023/03/24 11:14:24;;;;;;;10.55;1.27;;;17.60;99.90;;;16.96;75.85;99393.16;4895531;28;20046;-88
2023/03/24 11:17:15;;;;;;;3.22;1.20;;;;;;;17.16;75.88;99393.91;4898852;28;20053;-87
2023/03/24 11:20:11;;;;;;;;;;;;;;;;;;;;;
2023/03/24 11:23:27;;;;;;;5.47;1.20;;;17.90;99.90;;;16.95;70.57;99392.34;4980979;28;20518;-86
2023/03/24 11:26:24;;;;;;;5.18;1.13;;;17.90;99.90;;;16.90;71.37;99399.88;4945608;28;20037;-87